Acra, New York
Current Conditions -  °F | °C
As of 3:51 PM on Wednesday 17 Dec 2014 (Local Time) from KALB Reporting Station
Overcast Overcast  
Wind Chill: 33°   Ceiling: 4900
Heat Index: 41°   Visibility: 10mi
Dew Point: 33°   Wind: 14mph
Humidity: 73%   Direction: 290°WNW
Pressure: 29.81"   Gusts: NA
Location:  42.31°N, 74.05°W
Report Text: KALB 172051Z 29012KT 10SM FEW018 SCT027 OVC049 05/01 A2981 RMK AO2 RAB36E48 SLP098 P0000 60000 T00500006 53011
Loading
Personal Weather Stations






























Interactive Weather Map New forecast layout! Learn more

10-Day Weather Forecast

Advertisements
Track Severe Weather on mobile